Time;durP1;ratioP1;P1;durP2;ratioP2;P2;SDS_P1;SDS_P2;PMS_P1;PMS_P2;Temp;Humidity;BMP_temperature;BMP_pressure;BME280_temperature;BME280_humidity;BME280_pressure;Samples;Min_cycle;Max_cycle;Signal;HPM_P1;HPM_P2
2023/11/16 00:00:07;;;;;;;108.13;6.68;;;;;;;;;;4996008;28;20109;-56
2023/11/16 00:02:34;;;;;;;99.80;6.47;;;;;;;;;;4995474;28;20739;-56
2023/11/16 00:05:02;;;;;;;122.10;8.15;;;;;;;;;;4993194;28;20026;-56
2023/11/16 00:07:27;;;;;;;137.02;7.85;;;;;;;;;;4992631;28;20030;-55
2023/11/16 00:09:52;;;;;;;113.43;7.38;;;;;;;;;;4995613;28;20285;-55
2023/11/16 00:12:18;;;;;;;83.25;5.85;;;;;;;;;;4996372;28;20809;-57
2023/11/16 00:14:43;;;;;;;106.97;6.95;;;;;;;;;;4994017;28;20017;-55
2023/11/16 00:17:08;;;;;;;90.43;6.47;;;;;;;;;;4995047;28;20049;-57
2023/11/16 00:19:35;;;;;;;86.85;5.93;;;;;;;;;;4996066;28;20041;-57
2023/11/16 00:22:01;;;;;;;152.15;9.55;;;;;;;;;;4993467;28;20121;-57
2023/11/16 00:24:26;;;;;;;88.72;6.20;;;;;;;;;;4989283;28;20132;-56
2023/11/16 00:26:52;;;;;;;126.53;8.68;;;;;;;;;;4994578;28;20524;-58
2023/11/16 00:29:18;;;;;;;86.50;6.18;;;;;;;;;;4995475;28;20026;-57
2023/11/16 00:31:43;;;;;;;89.40;6.43;;;;;;;;;;4995540;28;20034;-57
2023/11/16 00:34:09;;;;;;;102.18;7.50;;;;;;;;;;4994386;28;20622;-57
2023/11/16 00:36:37;;;;;;;83.15;6.53;;;;;;;;;;4993929;28;20403;-55
2023/11/16 00:39:03;;;;;;;139.25;9.65;;;;;;;;;;4994613;28;20352;-55
2023/11/16 00:41:29;;;;;;;103.43;7.15;;;;;;;;;;4996007;28;20517;-55
2023/11/16 00:43:54;;;;;;;115.70;7.78;;;;;;;;;;4991359;28;20659;-56
2023/11/16 00:46:21;;;;;;;66.03;5.78;;;;;;;;;;4992904;28;20026;-55
2023/11/16 00:48:47;;;;;;;95.45;6.78;;;;;;;;;;4993870;28;20024;-55
2023/11/16 00:51:12;;;;;;;95.40;7.15;;;;;;;;;;4992751;28;20035;-57
2023/11/16 00:53:42;;;;;;;85.57;6.93;;;;;;;;;;4993541;28;20053;-56
2023/11/16 00:56:09;;;;;;;104.18;6.95;;;;;;;;;;4993294;28;20568;-57
2023/11/16 00:58:34;;;;;;;71.70;6.03;;;;;;;;;;4993257;28;20535;-56
2023/11/16 01:01:00;;;;;;;161.50;10.43;;;;;;;;;;4992658;28;20030;-56
2023/11/16 01:03:26;;;;;;;82.38;7.03;;;;;;;;;;4995482;28;20024;-56
2023/11/16 01:05:51;;;;;;;111.10;7.60;;;;;;;;;;4992270;28;20125;-55
2023/11/16 01:08:21;;;;;;;112.82;7.03;;;;;;;;;;4995184;28;20456;-56
2023/11/16 01:10:46;;;;;;;78.60;6.05;;;;;;;;;;4995405;28;20535;-56
2023/11/16 01:13:11;;;;;;;93.25;6.40;;;;;;;;;;4993052;28;20010;-57
2023/11/16 01:15:38;;;;;;;106.50;6.95;;;;;;;;;;4993529;28;20434;-56
2023/11/16 01:18:12;;;;;;;97.25;7.22;;;;;;;;;;4995269;28;20030;-56
2023/11/16 01:20:40;;;;;;;103.03;7.28;;;;;;;;;;4993832;28;20030;-56
2023/11/16 01:23:12;;;;;;;129.25;12.68;;;;;;;;;;4990565;28;20397;-56
2023/11/16 01:25:43;;;;;;;69.82;4.93;;;;;;;;;;4995790;28;20380;-57
2023/11/16 01:28:10;;;;;;;139.00;8.95;;;;;;;;;;4993786;28;20041;-56
2023/11/16 01:30:35;;;;;;;75.93;5.53;;;;;;;;;;4984798;28;20026;-56
2023/11/16 01:33:03;;;;;;;160.02;9.98;;;;;;;;;;4994348;28;20371;-56
2023/11/16 01:35:28;;;;;;;81.75;6.05;;;;;;;;;;4995325;28;20224;-56
2023/11/16 01:37:56;;;;;;;87.78;6.25;;;;;;;;;;4994307;28;20212;-57
2023/11/16 01:40:24;;;;;;;122.63;7.55;;;;;;;;;;4992163;28;20151;-57
2023/11/16 01:42:49;;;;;;;79.25;6.03;;;;;;;;;;4995345;28;20546;-56
2023/11/16 01:45:30;;;;;;;109.20;7.03;;;;;;;;;;4992631;28;20156;-57
2023/11/16 01:48:00;;;;;;;113.35;7.72;;;;;;;;;;4992860;28;20421;-56
2023/11/16 01:50:26;;;;;;;96.00;6.43;;;;;;;;;;4993871;28;20018;-55
2023/11/16 01:52:52;;;;;;;109.95;7.57;;;;;;;;;;4996800;28;20114;-55
2023/11/16 01:55:17;;;;;;;96.35;6.43;;;;;;;;;;4993448;28;20029;-57
2023/11/16 01:57:43;;;;;;;87.60;6.32;;;;;;;;;;4993006;28;20033;-56
2023/11/16 02:00:08;;;;;;;139.45;9.77;;;;;;;;;;4994002;28;20048;-56
2023/11/16 02:02:35;;;;;;;78.78;5.53;;;;;;;;;;4999348;28;20014;-56
2023/11/16 02:05:02;;;;;;;118.97;7.82;;;;;;;;;;5007049;28;20027;-55
2023/11/16 02:07:28;;;;;;;77.90;5.90;;;;;;;;;;5000418;28;20134;-57
2023/11/16 02:09:53;;;;;;;82.35;5.72;;;;;;;;;;4998333;28;20113;-57
2023/11/16 02:12:18;;;;;;;124.38;8.48;;;;;;;;;;4996262;28;20030;-57
2023/11/16 02:14:44;;;;;;;69.88;5.60;;;;;;;;;;5000016;28;20080;-56
2023/11/16 02:17:09;;;;;;;110.27;7.00;;;;;;;;;;4997879;28;20129;-55
2023/11/16 02:19:35;;;;;;;128.97;7.47;;;;;;;;;;4998155;28;20379;-56
2023/11/16 02:22:01;;;;;;;108.38;7.18;;;;;;;;;;4996936;28;20357;-56
2023/11/16 02:24:27;;;;;;;90.25;5.97;;;;;;;;;;4998658;28;20132;-56
2023/11/16 02:26:53;;;;;;;100.18;6.45;;;;;;;;;;5000377;28;20030;-56
2023/11/16 02:29:18;;;;;;;66.53;4.65;;;;;;;;;;4999142;28;20076;-58
2023/11/16 02:31:43;;;;;;;87.30;6.30;;;;;;;;;;5000015;28;20048;-56
2023/11/16 02:34:09;;;;;;;119.33;7.57;;;;;;;;;;4994005;28;20890;-56
2023/11/16 02:36:34;;;;;;;79.22;5.32;;;;;;;;;;4997120;28;20281;-57
2023/11/16 02:39:00;;;;;;;133.63;8.38;;;;;;;;;;4999119;28;20068;-57
2023/11/16 02:41:25;;;;;;;102.50;6.57;;;;;;;;;;4998808;28;20516;-56
2023/11/16 02:43:51;;;;;;;85.72;5.53;;;;;;;;;;4997894;28;20026;-56
2023/11/16 02:46:17;;;;;;;95.05;6.30;;;;;;;;;;4996608;28;20088;-57
2023/11/16 02:48:42;;;;;;;83.30;5.47;;;;;;;;;;4998031;28;20216;-57
2023/11/16 02:51:08;;;;;;;130.70;8.43;;;;;;;;;;4994672;28;20045;-55
2023/11/16 02:53:34;;;;;;;92.03;6.00;;;;;;;;;;4997582;28;20504;-56
2023/11/16 02:56:03;;;;;;;118.18;7.68;;;;;;;;;;4996836;28;20293;-55
2023/11/16 02:58:28;;;;;;;76.85;5.50;;;;;;;;;;4998529;28;20021;-56
2023/11/16 03:00:54;;;;;;;110.45;6.78;;;;;;;;;;4998074;28;20038;-55
2023/11/16 03:03:19;;;;;;;73.05;5.28;;;;;;;;;;4995116;28;20034;-55
2023/11/16 03:05:45;;;;;;;80.22;5.75;;;;;;;;;;4995824;28;20115;-55
2023/11/16 03:08:11;;;;;;;160.55;10.30;;;;;;;;;;4996493;28;20128;-57
2023/11/16 03:10:37;;;;;;;89.50;6.20;;;;;;;;;;4995839;28;20532;-55
2023/11/16 03:13:03;;;;;;;147.65;9.65;;;;;;;;;;4994273;28;20053;-55
2023/11/16 03:15:28;;;;;;;105.07;7.15;;;;;;;;;;4996216;28;20065;-55
2023/11/16 03:17:56;;;;;;;80.25;6.32;;;;;;;;;;4996829;28;20067;-55
2023/11/16 03:20:23;;;;;;;88.95;6.68;;;;;;;;;;4999784;28;20021;-56
2023/11/16 03:22:48;;;;;;;103.15;7.53;;;;;;;;;;4988758;28;20121;-57
2023/11/16 03:25:14;;;;;;;147.15;9.50;;;;;;;;;;4993278;28;20370;-56
2023/11/16 03:27:42;;;;;;;107.15;7.78;;;;;;;;;;4996816;28;20037;-56
2023/11/16 03:30:07;;;;;;;141.43;9.43;;;;;;;;;;4995590;28;20018;-57
2023/11/16 03:32:33;;;;;;;89.10;7.50;;;;;;;;;;4995188;28;20041;-57
2023/11/16 03:34:58;;;;;;;114.43;8.48;;;;;;;;;;4995283;28;20029;-55
2023/11/16 03:37:23;;;;;;;87.20;6.57;;;;;;;;;;4996066;28;20026;-57
2023/11/16 03:39:48;;;;;;;79.95;4.97;;;;;;;;;;4998774;28;20029;-56
2023/11/16 03:42:14;;;;;;;170.98;11.20;;;;;;;;;;4996081;28;20257;-56
2023/11/16 03:44:40;;;;;;;77.75;6.15;;;;;;;;;;4997826;28;20712;-56
2023/11/16 03:47:06;;;;;;;97.65;5.90;;;;;;;;;;4995260;28;20034;-57
2023/11/16 03:49:31;;;;;;;100.97;7.28;;;;;;;;;;4994378;28;20026;-56
2023/11/16 03:51:59;;;;;;;80.73;7.20;;;;;;;;;;4995815;28;20048;-55
2023/11/16 03:54:24;;;;;;;99.95;7.30;;;;;;;;;;5000217;28;20303;-56
2023/11/16 03:56:53;;;;;;;71.40;5.93;;;;;;;;;;4997509;28;20388;-56
2023/11/16 03:59:21;;;;;;;84.65;6.95;;;;;;;;;;4998303;28;20030;-55
2023/11/16 04:01:46;;;;;;;142.23;9.00;;;;;;;;;;4997622;28;20057;-57
2023/11/16 04:04:12;;;;;;;105.60;6.88;;;;;;;;;;4996209;28;20026;-56
2023/11/16 04:06:37;;;;;;;78.78;6.35;;;;;;;;;;4998876;28;20056;-56
2023/11/16 04:09:05;;;;;;;135.73;9.70;;;;;;;;;;4996994;28;20036;-56
2023/11/16 04:11:31;;;;;;;82.50;7.20;;;;;;;;;;4997332;28;20478;-55
2023/11/16 04:13:57;;;;;;;88.85;7.07;;;;;;;;;;4997565;28;20033;-55
2023/11/16 04:16:24;;;;;;;92.43;7.25;;;;;;;;;;4999331;28;20242;-55
2023/11/16 04:18:53;;;;;;;66.20;5.30;;;;;;;;;;4996696;28;20123;-55
2023/11/16 04:21:19;;;;;;;156.60;10.27;;;;;;;;;;4993960;28;20034;-56
2023/11/16 04:23:52;;;;;;;75.50;6.38;;;;;;;;;;4995282;28;20029;-56
2023/11/16 04:26:20;;;;;;;121.35;8.60;;;;;;;;;;4993843;28;20037;-56
2023/11/16 04:28:46;;;;;;;96.43;7.03;;;;;;;;;;4995755;28;20017;-57
2023/11/16 04:31:12;;;;;;;144.20;10.02;;;;;;;;;;4994493;28;20516;-57
2023/11/16 04:33:37;;;;;;;91.60;7.00;;;;;;;;;;4996217;28;20030;-56
2023/11/16 04:36:05;;;;;;;103.32;7.25;;;;;;;;;;4996046;28;20049;-57
2023/11/16 04:38:31;;;;;;;74.35;5.95;;;;;;;;;;4999128;28;20045;-56
2023/11/16 04:40:56;;;;;;;122.13;8.73;;;;;;;;;;4996717;28;20030;-56
2023/11/16 04:43:22;;;;;;;82.35;6.63;;;;;;;;;;4986021;28;20029;-57
2023/11/16 04:45:50;;;;;;;90.55;6.70;;;;;;;;;;4996220;28;20033;-56
2023/11/16 04:48:17;;;;;;;133.90;8.60;;;;;;;;;;4995322;28;20771;-56
2023/11/16 04:50:43;;;;;;;73.93;6.05;;;;;;;;;;4998602;28;20041;-57
2023/11/16 04:53:08;;;;;;;117.63;7.85;;;;;;;;;;4996576;28;20034;-57
2023/11/16 04:55:35;;;;;;;86.93;6.63;;;;;;;;;;4996420;28;20056;-57
2023/11/16 04:58:00;;;;;;;75.97;5.93;;;;;;;;;;4996479;28;20041;-56
2023/11/16 05:00:25;;;;;;;99.18;7.05;;;;;;;;;;4994450;28;20076;-58
2023/11/16 05:02:50;;;;;;;103.70;6.50;;;;;;;;;;4997064;28;20117;-57
2023/11/16 05:05:16;;;;;;;121.80;8.45;;;;;;;;;;4994763;28;20269;-58
2023/11/16 05:07:42;;;;;;;100.85;7.07;;;;;;;;;;4996785;28;20029;-58
2023/11/16 05:10:10;;;;;;;88.32;6.65;;;;;;;;;;4993991;28;20021;-58
2023/11/16 05:12:36;;;;;;;88.43;6.30;;;;;;;;;;4996722;28;20069;-56
2023/11/16 05:15:01;;;;;;;125.22;8.23;;;;;;;;;;4996990;28;20060;-57
2023/11/16 05:17:26;;;;;;;97.95;6.60;;;;;;;;;;4993342;28;20025;-56
2023/11/16 05:19:51;;;;;;;78.47;5.77;;;;;;;;;;4996162;28;20508;-57
2023/11/16 05:22:17;;;;;;;134.00;8.27;;;;;;;;;;4993214;28;20840;-56
2023/11/16 05:24:43;;;;;;;82.45;6.25;;;;;;;;;;4995689;28;20175;-56
2023/11/16 05:27:08;;;;;;;103.95;7.10;;;;;;;;;;4995930;28;20117;-58
2023/11/16 05:29:33;;;;;;;106.55;7.65;;;;;;;;;;4995391;28;20109;-57
2023/11/16 05:31:59;;;;;;;79.85;6.00;;;;;;;;;;4991792;28;20038;-56
2023/11/16 05:34:27;;;;;;;96.47;6.50;;;;;;;;;;4995350;28;20127;-57
2023/11/16 05:36:53;;;;;;;64.10;5.90;;;;;;;;;;4995849;28;20705;-58
2023/11/16 05:39:19;;;;;;;96.07;6.95;;;;;;;;;;4995952;28;20263;-58
2023/11/16 05:41:45;;;;;;;121.43;8.30;;;;;;;;;;4992758;28;20026;-56
2023/11/16 05:44:12;;;;;;;113.20;7.93;;;;;;;;;;4994196;28;20018;-57
2023/11/16 05:46:38;;;;;;;87.85;6.60;;;;;;;;;;4996177;28;20069;-58
2023/11/16 05:49:03;;;;;;;119.38;8.38;;;;;;;;;;4995832;28;20138;-57
2023/11/16 05:51:32;;;;;;;83.60;6.53;;;;;;;;;;4997258;28;20121;-57
2023/11/16 05:53:58;;;;;;;94.68;6.68;;;;;;;;;;4993458;28;20048;-57
2023/11/16 05:56:24;;;;;;;106.57;8.57;;;;;;;;;;4993609;28;20074;-57
2023/11/16 05:58:49;;;;;;;92.60;7.43;;;;;;;;;;4994119;28;20556;-56
2023/11/16 06:01:14;;;;;;;126.70;9.23;;;;;;;;;;4994818;28;20648;-57
2023/11/16 06:03:40;;;;;;;85.45;7.63;;;;;;;;;;4997021;28;20112;-57
2023/11/16 06:06:05;;;;;;;110.90;8.18;;;;;;;;;;4994825;28;20450;-58
2023/11/16 06:08:31;;;;;;;108.13;7.85;;;;;;;;;;4995150;28;20681;-57
2023/11/16 06:10:57;;;;;;;94.13;7.38;;;;;;;;;;4997762;28;20048;-57
2023/11/16 06:13:23;;;;;;;108.95;8.23;;;;;;;;;;4992350;28;20006;-57
2023/11/16 06:15:48;;;;;;;113.00;8.20;;;;;;;;;;4992600;28;20146;-57
2023/11/16 06:18:14;;;;;;;141.85;11.10;;;;;;;;;;4993944;28;20026;-57
2023/11/16 06:20:39;;;;;;;82.00;9.65;;;;;;;;;;4995449;28;20049;-56
2023/11/16 06:23:04;;;;;;;146.68;11.95;;;;;;;;;;4993427;28;20010;-57
2023/11/16 06:25:29;;;;;;;103.60;9.95;;;;;;;;;;4990416;28;20034;-57
2023/11/16 06:27:55;;;;;;;98.55;9.93;;;;;;;;;;4996204;28;20887;-57
2023/11/16 06:30:20;;;;;;;139.95;11.52;;;;;;;;;;4994805;28;20018;-57
2023/11/16 06:32:46;;;;;;;127.15;10.23;;;;;;;;;;4992125;28;20029;-57
2023/11/16 06:35:11;;;;;;;133.77;10.35;;;;;;;;;;4993932;28;20492;-57
2023/11/16 06:37:37;;;;;;;99.63;8.68;;;;;;;;;;4994197;28;20794;-57
2023/11/16 06:40:04;;;;;;;101.50;8.85;;;;;;;;;;4993574;28;20057;-58
2023/11/16 06:42:29;;;;;;;111.10;9.18;;;;;;;;;;4994872;28;20037;-57
2023/11/16 06:44:54;;;;;;;80.50;9.10;;;;;;;;;;4994344;28;20021;-57
2023/11/16 06:47:19;;;;;;;125.40;11.70;;;;;;;;;;4996907;28;20062;-57
2023/11/16 06:49:50;;;;;;;114.93;11.03;;;;;;;;;;4998719;28;20437;-57
2023/11/16 06:52:17;;;;;;;135.40;11.93;;;;;;;;;;4994758;28;20265;-58
2023/11/16 06:54:42;;;;;;;89.03;10.45;;;;;;;;;;4995560;28;20116;-58
2023/11/16 06:57:10;;;;;;;156.63;14.88;;;;;;;;;;4997749;28;20180;-57
2023/11/16 06:59:36;;;;;;;103.85;12.10;;;;;;;;;;4999022;28;20043;-57
2023/11/16 07:02:03;;;;;;;115.78;11.63;;;;;;;;;;4998306;28;20689;-57
2023/11/16 07:04:30;;;;;;;96.80;10.52;;;;;;;;;;4994666;28;20103;-57
2023/11/16 07:06:55;;;;;;;89.22;9.82;;;;;;;;;;4999267;28;20117;-56
2023/11/16 07:09:21;;;;;;;141.10;11.32;;;;;;;;;;4997388;28;20109;-56
2023/11/16 07:11:47;;;;;;;92.22;9.10;;;;;;;;;;4995869;28;20161;-57
2023/11/16 07:14:12;;;;;;;117.90;9.80;;;;;;;;;;4997613;28;20037;-56
2023/11/16 07:16:37;;;;;;;137.82;9.85;;;;;;;;;;4998000;28;20095;-57
2023/11/16 07:19:03;;;;;;;79.00;6.80;;;;;;;;;;4997078;28;20442;-56
2023/11/16 07:21:28;;;;;;;77.93;7.07;;;;;;;;;;4998286;28;20048;-56
2023/11/16 07:23:55;;;;;;;135.13;9.57;;;;;;;;;;4997364;28;20025;-56
2023/11/16 07:26:20;;;;;;;122.78;8.80;;;;;;;;;;4997001;28;20643;-57
2023/11/16 07:28:47;;;;;;;95.65;8.10;;;;;;;;;;4997536;28;20497;-57
2023/11/16 07:31:16;;;;;;;141.05;9.93;;;;;;;;;;4996675;28;20030;-56
2023/11/16 07:33:41;;;;;;;80.22;7.78;;;;;;;;;;4995981;28;20084;-57
2023/11/16 07:36:07;;;;;;;125.78;9.70;;;;;;;;;;4997994;28;20033;-57
2023/11/16 07:38:32;;;;;;;102.25;7.18;;;;;;;;;;4996349;28;20096;-57
2023/11/16 07:40:57;;;;;;;82.35;6.72;;;;;;;;;;4996912;28;20033;-56
2023/11/16 07:43:23;;;;;;;184.85;16.73;;;;;;;;;;4996740;28;20022;-59
2023/11/16 07:45:48;;;;;;;113.25;11.85;;;;;;;;;;4998115;28;20034;-57
2023/11/16 07:48:13;;;;;;;98.15;7.55;;;;;;;;;;4998204;28;20026;-57
2023/11/16 07:50:39;;;;;;;101.32;7.15;;;;;;;;;;4998465;28;20056;-57
2023/11/16 07:53:09;;;;;;;95.20;6.88;;;;;;;;;;4997354;28;20030;-57
2023/11/16 07:55:35;;;;;;;71.45;5.70;;;;;;;;;;4998536;28;20033;-57
2023/11/16 07:58:00;;;;;;;117.35;8.05;;;;;;;;;;4997738;28;20123;-57
2023/11/16 08:00:34;;;;;;;104.85;7.32;;;;;;;;;;4994728;28;20029;-57
2023/11/16 08:05:46;;;;;;;74.13;6.47;;;;;;;;;;4998994;28;20061;-57
2023/11/16 08:08:15;;;;;;;120.15;8.93;;;;;;;;;;4994018;28;20536;-57
2023/11/16 08:10:43;;;;;;;90.72;7.38;;;;;;;;;;4994928;28;20145;-56
2023/11/16 08:13:11;;;;;;;72.38;6.25;;;;;;;;;;4995393;28;20026;-56
2023/11/16 08:15:41;;;;;;;87.88;7.53;;;;;;;;;;4996955;28;20057;-55
2023/11/16 08:18:07;;;;;;;78.55;6.57;;;;;;;;;;4996120;28;20485;-55
2023/11/16 08:20:32;;;;;;;68.45;6.65;;;;;;;;;;4999229;28;20069;-57
2023/11/16 08:22:57;;;;;;;75.53;6.95;;;;;;;;;;4999549;28;20506;-56
2023/11/16 08:25:24;;;;;;;103.25;8.50;;;;;;;;;;4998352;28;20076;-56
2023/11/16 08:27:52;;;;;;;73.30;6.70;;;;;;;;;;5000809;28;20101;-55
2023/11/16 08:30:18;;;;;;;137.45;11.45;;;;;;;;;;4998504;28;20482;-56
2023/11/16 08:32:44;;;;;;;75.57;8.90;;;;;;;;;;5000928;28;20080;-56
2023/11/16 08:35:10;;;;;;;61.00;6.03;;;;;;;;;;4996677;28;20486;-55
2023/11/16 08:37:36;;;;;;;67.10;6.75;;;;;;;;;;4998115;28;20042;-56
2023/11/16 08:40:02;;;;;;;52.17;4.90;;;;;;;;;;5000773;28;20065;-56
2023/11/16 08:42:27;;;;;;;68.85;6.45;;;;;;;;;;4999385;28;20084;-56
2023/11/16 08:44:53;;;;;;;90.32;6.65;;;;;;;;;;5000565;28;20480;-57
2023/11/16 08:47:18;;;;;;;93.38;7.75;;;;;;;;;;5001438;28;20084;-56
2023/11/16 08:49:45;;;;;;;47.28;5.30;;;;;;;;;;5001815;28;20049;-57
2023/11/16 08:52:14;;;;;;;93.70;7.47;;;;;;;;;;4998896;28;20132;-57
2023/11/16 08:54:39;;;;;;;49.92;4.13;;;;;;;;;;5000382;28;20018;-57
2023/11/16 08:57:05;;;;;;;91.70;6.88;;;;;;;;;;4999632;28;20053;-57
2023/11/16 08:59:35;;;;;;;70.85;6.07;;;;;;;;;;4999467;28;20029;-57
2023/11/16 09:02:01;;;;;;;59.67;5.45;;;;;;;;;;4999360;28;20577;-56
2023/11/16 09:04:28;;;;;;;125.78;8.48;;;;;;;;;;4999043;28;20262;-57
2023/11/16 09:06:54;;;;;;;61.88;7.45;;;;;;;;;;4998767;28;20034;-56
2023/11/16 09:09:37;;;;;;;100.03;7.90;;;;;;;;;;4998507;28;20029;-57
2023/11/16 09:12:05;;;;;;;73.63;6.47;;;;;;;;;;4998061;28;20041;-57
2023/11/16 09:14:34;;;;;;;61.78;6.10;;;;;;;;;;4997909;28;20018;-56
2023/11/16 09:17:02;;;;;;;80.70;6.32;;;;;;;;;;4997739;28;20037;-57
2023/11/16 09:19:31;;;;;;;93.43;6.93;;;;;;;;;;5000194;28;20025;-57
2023/11/16 09:21:58;;;;;;;108.50;8.23;;;;;;;;;;4996963;28;20473;-57
2023/11/16 09:24:25;;;;;;;76.65;6.03;;;;;;;;;;4996560;28;20033;-59
2023/11/16 09:26:55;;;;;;;64.75;5.93;;;;;;;;;;4998096;28;20113;-56
2023/11/16 09:29:20;;;;;;;99.95;7.90;;;;;;;;;;4999376;28;20490;-57
2023/11/16 09:31:46;;;;;;;82.63;6.63;;;;;;;;;;4999942;28;20066;-56
2023/11/16 09:34:11;;;;;;;68.05;5.68;;;;;;;;;;4999320;28;20033;-56
2023/11/16 09:36:37;;;;;;;80.00;6.80;;;;;;;;;;4998296;28;20117;-57
2023/11/16 09:39:06;;;;;;;62.35;4.40;;;;;;;;;;5001585;28;20420;-56
2023/11/16 09:41:33;;;;;;;68.57;6.18;;;;;;;;;;4996222;28;20037;-56
2023/11/16 09:44:01;;;;;;;60.92;5.32;;;;;;;;;;4998516;28;20611;-57
2023/11/16 09:46:30;;;;;;;97.25;7.25;;;;;;;;;;4997936;28;20037;-57
2023/11/16 09:48:58;;;;;;;73.03;5.93;;;;;;;;;;4999713;28;20033;-56
2023/11/16 09:51:24;;;;;;;67.53;5.20;;;;;;;;;;4997105;28;20034;-57
2023/11/16 09:53:50;;;;;;;84.78;6.57;;;;;;;;;;4999026;28;20041;-56
2023/11/16 09:56:20;;;;;;;77.43;6.18;;;;;;;;;;4998258;28;20488;-56
2023/11/16 09:58:47;;;;;;;70.90;9.82;;;;;;;;;;5000450;28;20038;-57
2023/11/16 10:01:14;;;;;;;94.57;6.85;;;;;;;;;;4996738;28;20301;-56
2023/11/16 10:03:40;;;;;;;43.03;4.57;;;;;;;;;;4999100;28;20532;-56
2023/11/16 10:06:07;;;;;;;65.85;5.50;;;;;;;;;;4995530;28;20045;-56
2023/11/16 10:08:33;;;;;;;112.45;7.80;;;;;;;;;;4997499;28;20038;-57
2023/11/16 10:11:00;;;;;;;49.58;5.18;;;;;;;;;;4995286;28;20038;-56
2023/11/16 10:13:27;;;;;;;83.82;6.47;;;;;;;;;;4996943;28;20069;-57
2023/11/16 10:15:53;;;;;;;69.45;5.90;;;;;;;;;;4997830;28;20517;-57
2023/11/16 10:18:18;;;;;;;90.40;7.03;;;;;;;;;;4997843;28;20032;-57
2023/11/16 10:20:44;;;;;;;71.95;5.90;;;;;;;;;;5000482;28;20499;-57
2023/11/16 10:23:12;;;;;;;59.75;5.30;;;;;;;;;;5001249;28;20018;-57
2023/11/16 10:25:38;;;;;;;55.75;5.00;;;;;;;;;;5001219;28;20027;-57
2023/11/16 10:28:33;;;;;;;72.63;5.78;;;;;;;;;;5002235;28;20185;-57
2023/11/16 10:30:58;;;;;;;66.80;5.68;;;;;;;;;;4994640;28;20544;-57
2023/11/16 10:33:25;;;;;;;109.32;8.25;;;;;;;;;;5000886;28;20021;-57
2023/11/16 10:35:52;;;;;;;47.78;4.75;;;;;;;;;;5002203;28;20029;-57
2023/11/16 10:38:18;;;;;;;83.53;6.30;;;;;;;;;;4999598;28;20038;-57
2023/11/16 10:40:45;;;;;;;80.47;6.72;;;;;;;;;;4999705;28;20018;-57
2023/11/16 10:43:15;;;;;;;63.88;5.78;;;;;;;;;;5003297;28;20267;-57
2023/11/16 10:45:42;;;;;;;70.13;6.10;;;;;;;;;;5001755;28;20034;-57
2023/11/16 10:48:09;;;;;;;69.97;5.93;;;;;;;;;;5001582;28;20490;-57
2023/11/16 10:50:34;;;;;;;98.20;7.65;;;;;;;;;;5001059;28;20064;-57
2023/11/16 10:53:01;;;;;;;77.10;5.88;;;;;;;;;;5002046;28;20386;-55
2023/11/16 10:55:29;;;;;;;95.70;7.65;;;;;;;;;;5000753;28;20029;-56
2023/11/16 10:58:01;;;;;;;71.80;5.63;;;;;;;;;;5002711;28;20133;-57
2023/11/16 11:00:29;;;;;;;;;;;;;;;;;;5000675;28;20674;-56
2023/11/16 11:02:56;;;;;;;64.00;5.00;;;;;;;;;;5001152;28;19905;-56
2023/11/16 11:05:22;;;;;;;120.82;7.43;;;;;;;;;;5001847;28;20109;-57
2023/11/16 11:07:47;;;;;;;63.20;5.32;;;;;;;;;;5000993;28;20514;-56
2023/11/16 11:10:13;;;;;;;81.05;5.72;;;;;;;;;;5002703;28;20019;-56
2023/11/16 11:12:41;;;;;;;82.95;5.30;;;;;;;;;;5001370;28;20010;-56
2023/11/16 11:15:10;;;;;;;56.70;4.70;;;;;;;;;;5003667;28;20243;-56
2023/11/16 11:17:41;;;;;;;135.63;8.27;;;;;;;;;;5000863;28;20064;-56
2023/11/16 11:20:10;;;;;;;61.83;4.27;;;;;;;;;;5002374;28;20025;-55
2023/11/16 11:22:36;;;;;;;121.45;7.45;;;;;;;;;;4998704;28;20390;-56
2023/11/16 11:25:05;;;;;;;73.53;4.97;;;;;;;;;;5001803;28;20014;-55
2023/11/16 11:27:31;;;;;;;100.80;6.85;;;;;;;;;;5000235;28;20026;-56
2023/11/16 11:30:06;;;;;;;82.45;5.85;;;;;;;;;;5002263;28;20095;-56
2023/11/16 11:32:36;;;;;;;107.10;7.35;;;;;;;;;;4999357;28;20049;-56
2023/11/16 11:35:11;;;;;;;67.07;4.85;;;;;;;;;;5001195;28;20025;-56
2023/11/16 11:37:38;;;;;;;82.10;5.95;;;;;;;;;;4998580;28;20048;-56
2023/11/16 11:40:07;;;;;;;56.42;4.28;;;;;;;;;;5003607;28;20045;-57
2023/11/16 11:42:37;;;;;;;131.57;8.40;;;;;;;;;;5000176;28;20042;-56
2023/11/16 11:45:04;;;;;;;76.50;9.52;;;;;;;;;;4999918;28;20029;-56
2023/11/16 11:47:31;;;;;;;104.47;7.25;;;;;;;;;;4998442;28;20092;-56
2023/11/16 11:49:57;;;;;;;78.57;5.38;;;;;;;;;;5002422;28;20071;-56
2023/11/16 11:52:24;;;;;;;94.65;6.53;;;;;;;;;;5000699;28;20029;-58
2023/11/16 11:54:50;;;;;;;87.22;6.20;;;;;;;;;;5001065;28;20025;-57
2023/11/16 11:57:16;;;;;;;84.82;10.60;;;;;;;;;;5001148;28;20038;-56
2023/11/16 11:59:43;;;;;;;64.60;4.65;;;;;;;;;;5000684;28;20030;-55
2023/11/16 12:02:09;;;;;;;126.57;10.02;;;;;;;;;;5000011;28;20122;-56
2023/11/16 12:04:35;;;;;;;102.95;7.10;;;;;;;;;;4999592;28;20405;-58
2023/11/16 12:07:07;;;;;;;59.92;4.00;;;;;;;;;;4999522;28;20037;-58
2023/11/16 12:09:32;;;;;;;;;;;;;;;;;;4998999;28;20272;-57
2023/11/16 12:11:57;;;;;;;99.33;6.43;;;;;;;;;;5001715;28;20258;-57
2023/11/16 12:14:23;;;;;;;125.20;7.65;;;;;;;;;;4999721;28;20389;-57
2023/11/16 12:16:50;;;;;;;89.07;5.65;;;;;;;;;;5001107;28;20137;-58
2023/11/16 12:19:21;;;;;;;56.20;4.40;;;;;;;;;;5000333;28;20026;-57
2023/11/16 12:21:47;;;;;;;130.13;7.63;;;;;;;;;;4998515;28;20030;-58
2023/11/16 12:24:14;;;;;;;69.95;4.95;;;;;;;;;;5000774;28;20472;-57
2023/11/16 12:26:39;;;;;;;86.63;6.22;;;;;;;;;;4998172;28;20054;-58
2023/11/16 12:29:11;;;;;;;117.75;7.20;;;;;;;;;;5000191;28;20466;-55
2023/11/16 12:31:36;;;;;;;120.20;7.65;;;;;;;;;;4997120;28;20045;-56
2023/11/16 12:34:06;;;;;;;86.05;5.30;;;;;;;;;;4999825;28;20040;-58
2023/11/16 12:36:32;;;;;;;83.95;5.63;;;;;;;;;;4998214;28;20045;-58
2023/11/16 12:38:58;;;;;;;63.97;4.78;;;;;;;;;;5001158;28;20072;-57
2023/11/16 12:41:24;;;;;;;111.75;6.90;;;;;;;;;;4999248;28;20057;-59
2023/11/16 12:43:49;;;;;;;51.72;3.75;;;;;;;;;;5001221;28;20048;-58
2023/11/16 12:46:15;;;;;;;59.72;4.50;;;;;;;;;;4999756;28;20494;-58
2023/11/16 12:48:41;;;;;;;104.15;6.40;;;;;;;;;;4998828;28;22560;-58
2023/11/16 12:51:07;;;;;;;49.20;4.05;;;;;;;;;;5000585;28;20528;-58
2023/11/16 12:53:33;;;;;;;91.53;6.40;;;;;;;;;;4990496;28;20124;-57
2023/11/16 12:55:58;;;;;;;84.38;5.68;;;;;;;;;;4998982;28;20120;-57
2023/11/16 12:58:26;;;;;;;73.85;5.25;;;;;;;;;;4999064;28;20549;-57
2023/11/16 13:00:51;;;;;;;48.03;3.78;;;;;;;;;;5000270;28;20053;-57
2023/11/16 13:03:16;;;;;;;73.63;4.78;;;;;;;;;;5000542;28;20117;-57
2023/11/16 13:05:43;;;;;;;56.78;4.10;;;;;;;;;;4998874;28;20134;-57
2023/11/16 13:08:09;;;;;;;70.10;5.03;;;;;;;;;;4999984;28;20118;-58
2023/11/16 13:10:34;;;;;;;111.88;7.35;;;;;;;;;;4996435;28;20122;-57
2023/11/16 13:12:59;;;;;;;51.85;4.72;;;;;;;;;;5000354;28;20025;-58
2023/11/16 13:15:25;;;;;;;100.53;6.45;;;;;;;;;;4997819;28;20026;-57
2023/11/16 13:17:50;;;;;;;49.47;4.00;;;;;;;;;;5000167;28;20017;-58
2023/11/16 13:20:15;;;;;;;67.00;4.67;;;;;;;;;;4999174;28;20104;-57
2023/11/16 13:22:41;;;;;;;140.98;8.60;;;;;;;;;;4997239;28;20323;-57
2023/11/16 13:25:07;;;;;;;61.28;4.45;;;;;;;;;;5000712;28;20056;-58
2023/11/16 13:27:33;;;;;;;108.65;7.32;;;;;;;;;;4998614;28;20117;-58
2023/11/16 13:29:58;;;;;;;80.47;5.43;;;;;;;;;;4999417;28;20490;-57
2023/11/16 13:32:23;;;;;;;65.03;4.95;;;;;;;;;;4999931;28;20022;-57
2023/11/16 13:34:49;;;;;;;40.70;3.40;;;;;;;;;;4999154;28;20014;-57
2023/11/16 13:37:14;;;;;;;88.35;5.75;;;;;;;;;;4999158;28;20418;-58
2023/11/16 13:39:41;;;;;;;65.97;4.78;;;;;;;;;;5001068;28;20113;-57
2023/11/16 13:42:06;;;;;;;60.97;4.22;;;;;;;;;;4999956;28;20533;-58
2023/11/16 13:44:32;;;;;;;138.07;8.55;;;;;;;;;;4997465;28;20043;-58
2023/11/16 13:46:57;;;;;;;45.40;4.10;;;;;;;;;;4999510;28;20536;-58
2023/11/16 13:49:22;;;;;;;59.47;4.25;;;;;;;;;;4997795;28;20056;-58
2023/11/16 13:51:48;;;;;;;102.78;6.57;;;;;;;;;;4997093;28;20026;-58
2023/11/16 13:54:13;;;;;;;52.95;3.83;;;;;;;;;;5001001;28;20030;-58
2023/11/16 13:56:38;;;;;;;79.05;5.13;;;;;;;;;;5002594;28;20041;-57
2023/11/16 13:59:05;;;;;;;79.18;5.03;;;;;;;;;;5003109;28;20072;-57
2023/11/16 14:01:30;;;;;;;82.72;5.43;;;;;;;;;;5001866;28;20030;-57
2023/11/16 14:03:56;;;;;;;60.15;4.45;;;;;;;;;;5003952;28;20025;-57
2023/11/16 14:06:21;;;;;;;69.18;4.82;;;;;;;;;;5003626;28;20023;-57
2023/11/16 14:08:47;;;;;;;55.85;4.22;;;;;;;;;;5005256;28;20025;-58
2023/11/16 14:11:12;;;;;;;69.03;4.88;;;;;;;;;;5003086;28;20033;-58
2023/11/16 14:13:41;;;;;;;78.65;5.45;;;;;;;;;;5004751;28;20518;-57
2023/11/16 14:16:07;;;;;;;48.78;4.25;;;;;;;;;;5001934;28;20281;-57
2023/11/16 14:18:36;;;;;;;116.72;7.72;;;;;;;;;;5001323;28;20409;-57
2023/11/16 14:21:06;;;;;;;59.22;4.55;;;;;;;;;;5002933;28;20109;-58
2023/11/16 14:23:31;;;;;;;92.32;6.10;;;;;;;;;;5000229;28;20469;-58